Time;durP1;ratioP1;P1;durP2;ratioP2;P2;SDS_P1;SDS_P2;PMS_P1;PMS_P2;Temp;Humidity;BMP_temperature;BMP_pressure;BME280_temperature;BME280_humidity;BME280_pressure;Samples;Min_cycle;Max_cycle;Signal;HPM_P1;HPM_P2
2022/10/18 00:00:47;;;;;;;2.88;1.83;;;18.70;77.90;;;;;;4786432;29;20047;-55
2022/10/18 00:03:14;;;;;;;2.10;1.88;;;18.70;77.90;;;;;;4786211;29;20402;-54
2022/10/18 00:05:40;;;;;;;3.55;1.90;;;18.70;77.90;;;;;;4785234;29;20154;-54
2022/10/18 00:08:07;;;;;;;2.90;1.80;;;18.70;77.90;;;;;;4785157;30;20043;-54
2022/10/18 00:10:35;;;;;;;3.33;1.90;;;18.70;77.90;;;;;;4785875;29;20066;-54
2022/10/18 00:13:01;;;;;;;6.03;2.70;;;18.70;77.90;;;;;;4786966;30;20055;-53
2022/10/18 00:15:31;;;;;;;4.35;2.28;;;18.70;77.90;;;;;;4785091;29;20055;-55
2022/10/18 00:17:58;;;;;;;3.78;2.50;;;18.70;77.90;;;;;;4788472;29;20055;-52
2022/10/18 00:20:25;;;;;;;6.68;2.53;;;18.70;77.90;;;;;;4785964;29;20528;-52
2022/10/18 00:22:52;;;;;;;4.72;2.08;;;18.70;77.90;;;;;;4785398;29;20142;-55
2022/10/18 00:25:18;;;;;;;3.80;2.10;;;18.70;77.90;;;;;;4784851;29;20138;-55
2022/10/18 00:27:47;;;;;;;1.80;1.70;;;18.70;77.90;;;;;;4786677;29;20695;-53
2022/10/18 00:30:14;;;;;;;2.58;1.75;;;18.70;77.70;;;;;;4791132;29;20134;-54
2022/10/18 00:32:41;;;;;;;3.63;1.92;;;18.70;77.70;;;;;;4784487;30;20513;-51
2022/10/18 00:35:08;;;;;;;3.70;2.10;;;18.70;77.70;;;;;;4785404;29;20062;-55
2022/10/18 00:37:35;;;;;;;2.58;2.30;;;18.70;77.70;;;;;;4786428;30;20048;-51
2022/10/18 00:40:02;;;;;;;2.72;1.88;;;18.60;77.60;;;;;;4785445;29;20166;-55
2022/10/18 00:42:32;;;;;;;3.08;1.80;;;18.60;77.50;;;;;;4784085;29;20506;-55
2022/10/18 00:45:11;;;;;;;4.50;2.22;;;18.60;77.50;;;;;;4781048;30;20043;-55
2022/10/18 00:47:38;;;;;;;6.13;2.95;;;18.60;77.40;;;;;;4785479;29;20118;-53
2022/10/18 00:50:09;;;;;;;2.97;2.00;;;18.60;77.40;;;;;;4785227;29;20062;-53
2022/10/18 00:52:46;;;;;;;3.08;1.85;;;18.50;77.30;;;;;;4786166;29;20066;-55
2022/10/18 00:55:13;;;;;;;3.10;2.10;;;18.60;77.30;;;;;;4784733;29;20054;-53
2022/10/18 00:57:41;;;;;;;1.65;1.55;;;18.50;77.30;;;;;;4785251;29;20069;-54
2022/10/18 01:00:10;;;;;;;4.85;3.40;;;18.50;77.30;;;;;;4785286;29;20061;-54
2022/10/18 01:02:40;;;;;;;2.33;2.13;;;18.50;77.40;;;;;;4780868;29;20101;-55
2022/10/18 01:05:09;;;;;;;2.20;1.92;;;18.50;77.50;;;;;;4784892;29;20047;-55
2022/10/18 01:08:04;;;;;;;3.38;1.98;;;18.50;77.50;;;;;;4784317;29;20047;-54
2022/10/18 01:10:40;;;;;;;4.65;2.00;;;18.50;77.70;;;;;;4784864;29;20054;-54
2022/10/18 01:13:19;;;;;;;2.22;1.73;;;18.40;77.60;;;;;;4784637;29;20146;-55
2022/10/18 01:16:09;;;;;;;1.75;1.55;;;18.40;77.70;;;;;;4784683;29;20073;-55
2022/10/18 01:18:54;;;;;;;4.32;1.98;;;18.40;77.70;;;;;;4793166;29;20544;-54
2022/10/18 01:21:37;;;;;;;4.47;2.03;;;18.40;77.80;;;;;;4783627;30;20071;-55
2022/10/18 01:24:29;;;;;;;3.05;2.20;;;18.40;77.90;;;;;;4783549;29;20208;-55
2022/10/18 01:27:22;;;;;;;3.33;1.90;;;18.40;78.00;;;;;;4785817;29;20126;-55
2022/10/18 01:29:58;;;;;;;6.20;2.00;;;18.40;77.90;;;;;;4782677;29;20111;-53
2022/10/18 01:32:33;;;;;;;4.70;2.58;;;18.50;78.10;;;;;;4782206;30;20068;-55
2022/10/18 01:35:18;;;;;;;2.28;2.08;;;18.40;78.10;;;;;;4784277;29;20055;-55
2022/10/18 01:37:49;;;;;;;3.83;2.33;;;18.50;78.40;;;;;;4784670;29;20043;-55
2022/10/18 01:40:21;;;;;;;3.38;2.58;;;18.40;78.20;;;;;;4783056;29;20051;-54
2022/10/18 01:42:49;;;;;;;3.60;2.58;;;18.50;78.30;;;;;;4783661;29;20051;-54
2022/10/18 01:45:16;;;;;;;5.28;2.40;;;18.50;78.40;;;;;;4784423;29;20050;-55
2022/10/18 01:47:44;;;;;;;5.40;2.70;;;18.50;78.30;;;;;;4784761;29;20082;-53
2022/10/18 01:50:16;;;;;;;3.97;2.85;;;18.50;78.40;;;;;;4784065;29;20054;-54
2022/10/18 01:52:51;;;;;;;3.47;2.42;;;18.50;78.30;;;;;;4783636;29;20040;-55
2022/10/18 01:55:34;;;;;;;8.27;2.67;;;18.50;78.30;;;;;;4784178;29;20061;-53
2022/10/18 01:58:23;;;;;;;;;;;18.50;78.40;;;;;;4784012;29;20066;-52
2022/10/18 02:01:01;;;;;;;2.38;2.17;;;18.60;78.40;;;;;;4781813;29;19932;-55
2022/10/18 02:03:33;;;;;;;1.88;1.75;;;18.50;77.90;;;;;;4785181;29;20055;-51
2022/10/18 02:06:12;;;;;;;2.88;2.47;;;18.50;77.90;;;;;;4784115;29;20054;-55
2022/10/18 02:08:50;;;;;;;2.60;2.40;;;18.60;78.10;;;;;;4784111;29;20039;-55
2022/10/18 02:11:17;;;;;;;3.92;3.00;;;18.60;78.30;;;;;;4788627;29;20035;-53
2022/10/18 02:13:54;;;;;;;3.58;3.13;;;18.50;78.20;;;;;;4787491;29;20047;-53
2022/10/18 02:16:29;;;;;;;3.15;2.50;;;18.50;78.40;;;;;;4790821;29;20660;-52
2022/10/18 02:19:33;;;;;;;3.85;2.53;;;18.50;78.40;;;;;;4787578;29;20051;-54
2022/10/18 02:22:04;;;;;;;3.83;2.25;;;18.60;78.50;;;;;;4788339;30;20122;-52
2022/10/18 02:24:52;;;;;;;4.75;3.10;;;18.60;78.40;;;;;;4787179;29;20752;-52
2022/10/18 02:27:20;;;;;;;4.95;2.85;;;18.60;78.50;;;;;;4786926;29;20144;-53
2022/10/18 02:29:48;;;;;;;7.75;3.22;;;18.60;78.50;;;;;;4787029;29;20049;-55
2022/10/18 02:32:32;;;;;;;7.55;3.53;;;18.60;78.50;;;;;;4787656;29;20043;-55
2022/10/18 02:35:29;;;;;;;3.08;2.78;;;18.60;78.60;;;;;;4786941;29;20517;-54
2022/10/18 02:37:57;;;;;;;3.35;2.45;;;18.60;78.60;;;;;;4787357;29;20065;-54
2022/10/18 02:40:25;;;;;;;6.70;3.42;;;18.70;78.50;;;;;;4787241;29;20481;-52
2022/10/18 02:42:58;;;;;;;4.68;3.30;;;18.60;78.50;;;;;;4787085;29;20103;-55
2022/10/18 02:45:26;;;;;;;5.00;3.45;;;18.70;78.60;;;;;;4786569;29;20124;-55
2022/10/18 02:47:52;;;;;;;3.58;3.08;;;18.70;78.60;;;;;;4788581;29;20047;-54
2022/10/18 02:50:19;;;;;;;4.82;3.38;;;18.70;78.60;;;;;;4786661;29;20043;-54
2022/10/18 02:52:46;;;;;;;4.00;3.00;;;18.70;78.50;;;;;;4785882;29;20100;-55
2022/10/18 02:55:12;;;;;;;6.88;4.53;;;18.70;78.50;;;;;;4785138;29;20054;-54
2022/10/18 02:57:41;;;;;;;6.50;4.03;;;18.70;78.60;;;;;;4787621;30;20047;-51
2022/10/18 03:00:09;;;;;;;6.28;3.80;;;18.70;78.60;;;;;;4786823;30;20039;-52
2022/10/18 03:02:36;;;;;;;4.60;4.15;;;18.70;78.60;;;;;;4785831;30;20057;-54
2022/10/18 03:05:02;;;;;;;7.90;3.60;;;18.70;78.60;;;;;;4786819;30;20047;-55
2022/10/18 03:07:29;;;;;;;4.93;3.83;;;18.70;78.50;;;;;;4786390;29;20061;-55
2022/10/18 03:09:56;;;;;;;5.97;4.07;;;18.80;78.50;;;;;;4786849;29;20054;-55
2022/10/18 03:12:23;;;;;;;5.10;4.35;;;18.70;78.50;;;;;;4821448;24;20051;-55
2022/10/18 03:14:49;;;;;;;5.38;4.22;;;18.70;78.50;;;;;;4801463;29;20050;-55
2022/10/18 03:17:17;;;;;;;7.40;4.47;;;18.70;78.50;;;;;;4807742;29;20417;-56
2022/10/18 03:19:44;;;;;;;7.47;4.80;;;18.70;78.50;;;;;;4804260;29;20508;-56
2022/10/18 03:22:11;;;;;;;5.15;4.47;;;18.70;78.50;;;;;;4805495;29;20509;-56
2022/10/18 03:24:37;;;;;;;6.32;4.47;;;18.70;78.50;;;;;;4800820;29;20058;-56
2022/10/18 03:27:04;;;;;;;6.55;4.28;;;18.80;78.60;;;;;;4804401;29;20049;-56
2022/10/18 03:29:31;;;;;;;7.85;4.57;;;18.80;78.60;;;;;;4804700;29;20042;-56
2022/10/18 03:31:57;;;;;;;7.63;4.50;;;18.80;78.60;;;;;;4802591;29;20046;-55
2022/10/18 03:34:26;;;;;;;8.63;6.75;;;18.80;78.60;;;;;;4803311;29;20050;-53
2022/10/18 03:36:53;;;;;;;9.68;8.68;;;18.80;78.70;;;;;;4810820;29;20077;-56
2022/10/18 03:39:20;;;;;;;9.80;8.18;;;18.80;78.70;;;;;;4804378;29;20047;-56
2022/10/18 03:41:47;;;;;;;8.75;7.80;;;18.80;78.70;;;;;;4801665;29;20043;-55
2022/10/18 03:44:13;;;;;;;14.25;8.52;;;18.80;78.70;;;;;;4803308;29;20521;-54
2022/10/18 03:46:40;;;;;;;11.32;8.95;;;18.80;78.80;;;;;;4804724;29;20050;-56
2022/10/18 03:49:07;;;;;;;10.73;9.05;;;18.80;78.80;;;;;;4805364;29;20043;-54
2022/10/18 03:51:33;;;;;;;9.40;8.25;;;18.80;78.80;;;;;;4800747;29;20055;-56
2022/10/18 03:54:00;;;;;;;10.45;8.95;;;18.80;78.80;;;;;;4803680;29;20039;-56
2022/10/18 03:56:27;;;;;;;12.43;9.10;;;18.80;78.80;;;;;;4804995;29;20508;-56
2022/10/18 03:58:55;;;;;;;12.57;10.13;;;18.80;78.90;;;;;;4802847;29;20051;-55
2022/10/18 04:01:22;;;;;;;10.10;9.10;;;18.80;78.90;;;;;;4801715;29;20078;-56
2022/10/18 04:03:49;;;;;;;14.77;10.52;;;18.80;79.00;;;;;;4803421;29;20051;-56
2022/10/18 04:06:18;;;;;;;11.55;10.07;;;18.80;79.00;;;;;;4804778;29;20042;-54
2022/10/18 04:08:44;;;;;;;13.90;10.38;;;18.80;79.10;;;;;;4800746;29;20053;-55
2022/10/18 04:11:11;;;;;;;10.82;9.70;;;18.80;79.10;;;;;;4799662;29;20061;-56
2022/10/18 04:13:40;;;;;;;11.52;9.90;;;18.80;79.10;;;;;;4803193;29;20068;-56
2022/10/18 04:16:07;;;;;;;12.05;10.43;;;18.80;79.10;;;;;;4806337;29;20070;-54
2022/10/18 04:18:33;;;;;;;11.48;10.27;;;18.80;79.20;;;;;;4810745;29;20451;-56
2022/10/18 04:21:00;;;;;;;11.35;9.85;;;18.80;79.20;;;;;;4801120;29;20129;-56
2022/10/18 04:23:27;;;;;;;10.90;9.35;;;18.80;79.30;;;;;;4804318;29;20524;-55
2022/10/18 04:26:01;;;;;;;16.02;11.10;;;18.80;79.30;;;;;;4803625;29;20104;-56
2022/10/18 04:28:33;;;;;;;13.05;11.13;;;18.80;79.30;;;;;;4799026;29;20070;-54
2022/10/18 04:31:02;;;;;;;11.82;9.88;;;18.80;79.30;;;;;;4803001;29;20042;-55
2022/10/18 04:33:29;;;;;;;13.02;11.05;;;18.80;79.20;;;;;;4802908;29;20046;-56
2022/10/18 04:35:58;;;;;;;11.82;10.60;;;18.80;79.20;;;;;;4805537;29;20049;-56
2022/10/18 04:38:24;;;;;;;12.50;10.80;;;18.80;79.30;;;;;;4801141;29;20065;-56
2022/10/18 04:40:52;;;;;;;11.93;9.80;;;18.80;79.20;;;;;;4799120;29;20107;-53
2022/10/18 04:43:19;;;;;;;13.15;10.38;;;18.80;79.20;;;;;;4801994;29;20448;-56
2022/10/18 04:45:46;;;;;;;9.68;8.68;;;18.80;79.00;;;;;;4798566;29;20043;-56
2022/10/18 04:48:16;;;;;;;12.07;10.15;;;18.80;78.90;;;;;;4801182;29;20055;-56
2022/10/18 04:50:43;;;;;;;10.48;8.32;;;18.70;78.90;;;;;;4802793;29;20062;-56
2022/10/18 04:53:13;;;;;;;9.07;8.13;;;18.80;78.80;;;;;;4799957;29;20088;-55
2022/10/18 04:55:49;;;;;;;9.35;8.35;;;18.70;78.60;;;;;;4800783;29;20046;-56
2022/10/18 04:58:16;;;;;;;9.15;8.25;;;18.70;78.50;;;;;;4794472;29;20062;-54
2022/10/18 05:00:44;;;;;;;10.02;8.20;;;18.70;78.40;;;;;;4804976;29;20053;-52
2022/10/18 05:03:12;;;;;;;9.18;8.00;;;18.70;78.30;;;;;;4801186;29;20682;-55
2022/10/18 05:05:39;;;;;;;9.85;8.27;;;18.70;78.40;;;;;;4816514;29;20046;-56
2022/10/18 05:08:26;;;;;;;12.15;9.57;;;18.60;78.40;;;;;;4804927;29;20050;-54
2022/10/18 05:10:52;;;;;;;9.38;8.48;;;18.60;78.50;;;;;;4802721;29;20046;-53
2022/10/18 05:13:19;;;;;;;9.45;8.43;;;18.60;78.70;;;;;;4802324;29;20046;-55
2022/10/18 05:15:46;;;;;;;8.48;7.57;;;18.60;78.70;;;;;;4794056;29;20053;-56
2022/10/18 05:18:13;;;;;;;10.07;9.07;;;18.60;78.60;;;;;;4797982;29;20050;-55
2022/10/18 05:20:39;;;;;;;10.77;8.95;;;18.60;78.70;;;;;;4801087;29;20134;-56
2022/10/18 05:23:09;;;;;;;9.48;8.57;;;18.60;78.70;;;;;;4801541;29;20133;-55
2022/10/18 05:25:40;;;;;;;9.52;8.52;;;18.60;78.80;;;;;;4794356;29;20058;-56
2022/10/18 05:28:07;;;;;;;9.38;8.38;;;18.60;78.80;;;;;;4801681;29;20053;-56
2022/10/18 05:30:46;;;;;;;10.85;8.85;;;18.60;78.80;;;;;;4800624;29;20062;-55
2022/10/18 05:33:13;;;;;;;11.63;10.18;;;18.60;78.80;;;;;;4799068;29;20043;-55
2022/10/18 05:35:40;;;;;;;11.40;10.05;;;18.60;78.80;;;;;;4803904;29;20070;-56
2022/10/18 05:38:07;;;;;;;12.73;10.65;;;18.60;78.80;;;;;;4807737;29;20050;-56
2022/10/18 05:40:37;;;;;;;14.05;10.18;;;18.60;78.90;;;;;;4819632;29;20054;-56
2022/10/18 05:43:04;;;;;;;17.85;11.93;;;18.60;78.90;;;;;;4797071;29;20129;-55
2022/10/18 05:45:31;;;;;;;11.23;10.02;;;18.60;78.90;;;;;;4798113;29;20133;-56
2022/10/18 05:47:57;;;;;;;12.23;10.57;;;18.50;78.90;;;;;;4800036;29;20131;-56
2022/10/18 05:50:24;;;;;;;10.23;9.13;;;18.50;78.80;;;;;;4808319;29;20408;-56
2022/10/18 05:52:55;;;;;;;10.27;9.25;;;18.50;78.70;;;;;;4800655;29;20046;-56
2022/10/18 05:55:38;;;;;;;11.05;9.95;;;18.50;78.60;;;;;;4801036;29;20046;-55
2022/10/18 05:58:04;;;;;;;11.95;10.75;;;18.60;78.60;;;;;;4801836;29;20133;-56
2022/10/18 06:00:31;;;;;;;11.15;9.90;;;18.50;78.40;;;;;;4801730;29;20053;-55
2022/10/18 06:03:01;;;;;;;10.00;8.98;;;18.50;78.40;;;;;;4798959;29;20053;-56
2022/10/18 06:05:27;;;;;;;10.93;9.65;;;18.50;78.30;;;;;;4800193;29;20082;-56
2022/10/18 06:07:55;;;;;;;14.10;11.48;;;18.40;78.10;;;;;;4802099;29;20611;-55
2022/10/18 06:10:22;;;;;;;16.48;11.73;;;18.40;78.20;;;;;;4802298;29;20043;-56
2022/10/18 06:12:49;;;;;;;13.73;11.75;;;18.40;78.40;;;;;;4799776;29;20046;-56
2022/10/18 06:15:15;;;;;;;12.73;11.30;;;18.30;78.40;;;;;;4799381;29;20075;-56
2022/10/18 06:17:42;;;;;;;14.95;12.15;;;18.30;78.40;;;;;;4804723;29;20050;-55
2022/10/18 06:20:09;;;;;;;16.55;12.73;;;18.30;78.50;;;;;;4807184;29;20046;-56
2022/10/18 06:22:36;;;;;;;17.67;13.40;;;18.30;78.90;;;;;;4800085;29;20516;-56
2022/10/18 06:25:03;;;;;;;15.82;13.25;;;18.30;79.20;;;;;;4802703;29;20038;-55
2022/10/18 06:27:30;;;;;;;19.58;13.32;;;18.30;79.30;;;;;;4802030;29;20047;-55
2022/10/18 06:29:57;;;;;;;16.40;14.15;;;18.30;79.50;;;;;;4798062;29;20049;-56
2022/10/18 06:32:24;;;;;;;19.27;14.40;;;18.30;79.60;;;;;;4803202;29;20523;-56
2022/10/18 06:34:51;;;;;;;18.73;13.30;;;18.30;79.80;;;;;;4802667;29;20054;-54
2022/10/18 06:37:17;;;;;;;17.55;14.52;;;18.30;80.00;;;;;;4799814;29;20117;-53
2022/10/18 06:39:44;;;;;;;20.23;15.52;;;18.30;80.10;;;;;;4792929;29;20055;-56
2022/10/18 06:42:11;;;;;;;21.30;14.98;;;18.30;80.10;;;;;;4800373;29;20047;-56
2022/10/18 06:44:37;;;;;;;20.17;14.43;;;18.40;80.30;;;;;;4801090;29;20637;-56
2022/10/18 06:47:06;;;;;;;20.23;14.93;;;18.40;80.30;;;;;;4802481;29;20050;-53
2022/10/18 06:49:33;;;;;;;19.67;15.60;;;18.40;80.40;;;;;;4799188;29;20424;-55
2022/10/18 06:52:00;;;;;;;22.33;16.48;;;18.40;80.30;;;;;;4801004;29;20516;-54
2022/10/18 06:54:26;;;;;;;24.45;16.42;;;18.50;80.40;;;;;;4800290;29;20053;-55
2022/10/18 06:56:56;;;;;;;23.15;16.05;;;18.50;80.40;;;;;;4805577;29;20090;-56
2022/10/18 06:59:23;;;;;;;21.90;16.30;;;18.50;80.40;;;;;;4798142;29;20055;-54
2022/10/18 07:01:54;;;;;;;25.73;17.33;;;18.50;80.40;;;;;;4799015;29;20085;-56
2022/10/18 07:04:21;;;;;;;27.77;17.60;;;18.50;80.30;;;;;;4804773;29;20645;-56
2022/10/18 07:06:48;;;;;;;24.50;16.25;;;18.60;80.30;;;;;;4803165;29;20044;-55
2022/10/18 07:09:14;;;;;;;28.92;19.10;;;18.60;80.40;;;;;;4801429;29;20511;-51
2022/10/18 07:11:41;;;;;;;27.50;17.50;;;18.60;80.30;;;;;;4804268;29;20054;-56
2022/10/18 07:14:08;;;;;;;23.42;16.63;;;18.70;80.30;;;;;;4804370;29;20041;-56
2022/10/18 07:16:41;;;;;;;27.98;18.40;;;18.70;80.30;;;;;;4801081;29;20513;-55
2022/10/18 07:19:11;;;;;;;28.02;18.65;;;18.70;80.30;;;;;;4800024;29;20057;-54
2022/10/18 07:21:39;;;;;;;24.35;18.98;;;18.80;80.30;;;;;;4805852;29;20061;-56
2022/10/18 07:24:06;;;;;;;30.23;18.77;;;18.80;80.30;;;;;;4786492;30;20130;-56
2022/10/18 07:26:34;;;;;;;30.23;19.70;;;18.80;80.10;;;;;;4797748;29;20070;-55
2022/10/18 07:29:07;;;;;;;29.63;19.75;;;18.90;80.10;;;;;;4804703;29;20047;-56
2022/10/18 07:31:35;;;;;;;29.75;19.27;;;18.90;80.10;;;;;;4804754;29;20523;-56
2022/10/18 07:34:06;;;;;;;27.65;18.88;;;18.90;79.80;;;;;;4798116;29;20061;-55
2022/10/18 07:36:33;;;;;;;25.75;19.25;;;18.90;79.80;;;;;;4801869;29;20469;-56
2022/10/18 07:39:00;;;;;;;26.45;19.63;;;19.00;79.80;;;;;;4804391;29;20412;-54
2022/10/18 07:41:27;;;;;;;30.67;19.50;;;19.00;79.80;;;;;;4812396;29;20138;-56
2022/10/18 07:43:54;;;;;;;28.33;19.25;;;19.00;79.70;;;;;;4821227;29;20053;-54
2022/10/18 07:46:21;;;;;;;29.02;18.77;;;19.10;79.70;;;;;;4796804;29;20073;-56
2022/10/18 07:48:49;;;;;;;29.58;20.27;;;19.10;79.60;;;;;;4805466;29;20049;-54
2022/10/18 07:51:16;;;;;;;29.40;19.70;;;19.10;79.50;;;;;;4804958;29;20043;-56
2022/10/18 07:53:43;;;;;;;29.90;20.88;;;19.10;79.50;;;;;;4800875;29;20547;-55
2022/10/18 07:56:17;;;;;;;31.08;20.27;;;19.10;79.50;;;;;;4800172;29;20054;-55
2022/10/18 07:58:46;;;;;;;33.20;20.33;;;19.10;79.50;;;;;;4804656;29;20056;-56
2022/10/18 08:01:14;;;;;;;26.15;18.58;;;19.10;79.60;;;;;;4804366;29;20057;-56
2022/10/18 08:03:41;;;;;;;28.38;20.17;;;19.20;79.60;;;;;;4800306;29;20065;-54
2022/10/18 08:06:10;;;;;;;28.98;20.67;;;19.20;79.50;;;;;;4803190;29;20043;-55
2022/10/18 08:08:38;;;;;;;30.08;19.20;;;19.20;79.30;;;;;;4804186;29;20054;-55
2022/10/18 08:11:08;;;;;;;36.80;23.08;;;19.30;79.30;;;;;;4805020;29;20408;-55
2022/10/18 08:13:35;;;;;;;31.30;21.70;;;19.30;79.20;;;;;;4797249;29;20478;-54
2022/10/18 08:16:26;;;;;;;32.70;21.13;;;19.30;79.10;;;;;;4799067;29;20122;-52
2022/10/18 08:18:55;;;;;;;29.40;18.85;;;19.30;79.00;;;;;;4807658;29;20465;-54
2022/10/18 08:21:22;;;;;;;31.17;19.75;;;19.30;78.80;;;;;;4822981;29;20121;-56
2022/10/18 08:23:49;;;;;;;30.38;19.35;;;19.30;78.80;;;;;;4800650;29;20050;-55
2022/10/18 08:26:18;;;;;;;35.95;21.42;;;19.30;78.80;;;;;;4804113;29;20051;-51
2022/10/18 08:28:46;;;;;;;29.13;20.70;;;19.40;78.90;;;;;;4803074;29;20517;-57
2022/10/18 08:31:24;;;;;;;31.60;19.08;;;19.40;79.00;;;;;;4800238;29;20500;-51
2022/10/18 08:33:51;;;;;;;29.23;20.77;;;19.40;78.90;;;;;;4799125;29;20095;-56
2022/10/18 08:36:18;;;;;;;25.80;18.35;;;19.40;79.00;;;;;;4802182;29;20081;-53
2022/10/18 08:38:44;;;;;;;31.05;21.30;;;19.40;78.80;;;;;;4799945;29;20043;-54
2022/10/18 08:41:36;;;;;;;27.75;20.25;;;19.50;79.00;;;;;;4803594;29;20047;-51
2022/10/18 08:44:19;;;;;;;31.73;21.10;;;19.50;78.70;;;;;;4795477;29;20636;-56
2022/10/18 08:46:54;;;;;;;30.45;18.25;;;19.50;78.30;;;;;;4803213;29;20050;-52
2022/10/18 08:49:41;;;;;;;31.73;20.70;;;19.50;78.00;;;;;;4803288;29;20103;-53
2022/10/18 08:52:36;;;;;;;25.30;17.97;;;19.50;77.90;;;;;;4798621;29;20118;-54
2022/10/18 08:55:16;;;;;;;32.90;21.65;;;19.50;77.90;;;;;;4803382;29;20047;-55
2022/10/18 08:57:43;;;;;;;41.10;21.77;;;19.50;78.00;;;;;;4802875;29;20059;-55
2022/10/18 09:00:21;;;;;;;32.70;21.75;;;19.50;78.20;;;;;;4797040;29;20058;-56
2022/10/18 09:03:04;;;;;;;33.75;20.75;;;19.60;78.30;;;;;;4802665;29;20519;-52
2022/10/18 09:05:40;;;;;;;;;;;19.60;78.40;;;;;;4803518;29;20065;-52
2022/10/18 09:08:45;;;;;;;27.23;19.35;;;19.70;78.50;;;;;;4805814;29;19926;-54
2022/10/18 09:11:23;;;;;;;28.17;18.80;;;19.70;78.10;;;;;;4798841;29;20055;-53
2022/10/18 09:14:20;;;;;;;30.60;20.65;;;19.70;77.90;;;;;;4802425;29;20130;-56
2022/10/18 09:16:53;;;;;;;30.17;19.50;;;19.70;78.00;;;;;;4806356;29;20048;-56
2022/10/18 09:19:32;;;;;;;;;;;19.70;77.90;;;;;;4808473;29;20054;-52
2022/10/18 09:22:13;;;;;;;29.63;18.55;;;19.80;78.10;;;;;;4800889;29;19924;-57
2022/10/18 09:24:50;;;;;;;29.88;20.13;;;19.80;77.60;;;;;;4803425;29;20059;-55
2022/10/18 09:27:19;;;;;;;33.00;20.25;;;19.80;77.60;;;;;;4804063;29;20042;-55
2022/10/18 09:30:08;;;;;;;29.77;19.50;;;19.80;77.60;;;;;;4794698;29;20046;-56
2022/10/18 09:33:25;;;;;;;32.90;20.98;;;19.80;77.20;;;;;;4802589;29;20054;-56
2022/10/18 09:36:02;;;;;;;31.55;19.20;;;19.80;77.50;;;;;;4792822;29;20065;-54
2022/10/18 09:38:32;;;;;;;31.63;19.92;;;19.80;77.40;;;;;;4800771;29;20047;-55
2022/10/18 09:41:06;;;;;;;29.30;19.20;;;19.70;77.40;;;;;;4798962;29;20057;-57
2022/10/18 09:43:45;;;;;;;37.58;21.48;;;19.70;77.50;;;;;;4801215;29;20043;-53
2022/10/18 09:46:14;;;;;;;37.72;21.85;;;19.80;77.70;;;;;;4802328;29;20053;-53
2022/10/18 09:48:47;;;;;;;29.38;20.33;;;19.80;77.80;;;;;;4800483;29;20047;-56
2022/10/18 09:51:22;;;;;;;28.60;20.08;;;19.80;77.60;;;;;;4803240;29;20051;-56
2022/10/18 09:54:27;;;;;;;29.80;19.90;;;19.90;77.60;;;;;;4802344;29;20113;-55
2022/10/18 09:57:03;;;;;;;29.85;19.60;;;19.90;77.20;;;;;;4785487;29;20051;-53
2022/10/18 09:59:46;;;;;;;31.08;19.13;;;19.90;77.40;;;;;;4801014;29;20054;-55
2022/10/18 10:02:21;;;;;;;28.88;19.50;;;19.90;77.60;;;;;;4802621;29;20082;-52
2022/10/18 10:04:49;;;;;;;29.20;20.55;;;19.90;77.70;;;;;;4805267;29;20069;-55
2022/10/18 10:07:28;;;;;;;29.92;19.70;;;20.00;77.40;;;;;;4800536;29;20047;-56
2022/10/18 10:10:19;;;;;;;32.70;20.92;;;20.00;77.20;;;;;;4799820;29;20047;-55
2022/10/18 10:12:46;;;;;;;26.73;19.20;;;20.10;77.60;;;;;;4801436;29;20043;-52
2022/10/18 10:15:18;;;;;;;25.63;18.80;;;20.10;76.90;;;;;;4792577;29;20054;-55
2022/10/18 10:17:58;;;;;;;28.42;18.88;;;20.10;76.50;;;;;;4801057;29;20073;-53
2022/10/18 10:20:46;;;;;;;28.38;18.77;;;20.10;76.40;;;;;;4801638;29;20062;-56
2022/10/18 10:23:19;;;;;;;26.88;17.60;;;20.10;75.80;;;;;;4800479;29;20527;-54
2022/10/18 10:25:55;;;;;;;27.17;18.83;;;20.10;75.80;;;;;;4796266;29;20054;-55
2022/10/18 10:28:31;;;;;;;28.58;18.92;;;20.10;75.60;;;;;;4801246;29;20039;-53
2022/10/18 10:31:45;;;;;;;30.70;21.27;;;20.10;75.90;;;;;;4797712;29;20553;-52
2022/10/18 10:34:12;;;;;;;28.02;20.23;;;20.10;76.00;;;;;;4807287;29;20139;-57
2022/10/18 10:36:47;;;;;;;31.63;21.13;;;20.20;75.90;;;;;;4813822;29;20057;-53
2022/10/18 10:39:20;;;;;;;28.08;19.08;;;20.20;75.20;;;;;;4808954;29;20059;-55
2022/10/18 10:41:58;;;;;;;24.55;18.45;;;20.20;75.30;;;;;;4805305;29;20141;-52
2022/10/18 10:44:32;;;;;;;27.27;19.40;;;20.30;74.80;;;;;;4803031;29;20060;-52
2022/10/18 10:46:59;;;;;;;26.80;18.77;;;20.30;74.60;;;;;;4808365;29;20038;-56
2022/10/18 10:49:44;;;;;;;26.40;18.40;;;20.30;74.80;;;;;;4806343;29;20188;-54
2022/10/18 10:52:18;;;;;;;24.85;16.55;;;20.30;74.50;;;;;;4805820;29;20047;-54
2022/10/18 10:55:00;;;;;;;25.35;17.70;;;20.30;74.50;;;;;;4804034;29;20125;-52
2022/10/18 10:57:49;;;;;;;23.77;17.83;;;20.30;74.80;;;;;;4805360;29;20409;-55
2022/10/18 11:00:36;;;;;;;26.20;16.90;;;20.40;74.80;;;;;;4806646;29;20066;-56
2022/10/18 11:03:12;;;;;;;27.80;17.75;;;20.50;74.40;;;;;;4799209;29;20051;-55
2022/10/18 11:05:56;;;;;;;24.85;16.85;;;20.50;74.10;;;;;;4804857;29;20047;-56
2022/10/18 11:08:37;;;;;;;25.80;16.95;;;20.60;74.70;;;;;;4805204;29;20051;-56
2022/10/18 11:11:13;;;;;;;24.70;18.23;;;20.70;74.20;;;;;;4803788;29;20509;-56
2022/10/18 11:13:49;;;;;;;30.42;17.70;;;20.70;73.90;;;;;;4804577;29;20093;-55
2022/10/18 11:17:02;;;;;;;22.48;16.70;;;20.80;73.60;;;;;;4806292;29;20043;-56
2022/10/18 11:19:52;;;;;;;26.67;18.73;;;20.90;74.00;;;;;;4808954;29;20059;-55
2022/10/18 11:22:23;;;;;;;24.63;16.63;;;20.90;74.10;;;;;;4800395;29;20125;-54
2022/10/18 11:24:52;;;;;;;24.98;17.02;;;21.00;73.50;;;;;;4804632;29;20031;-56
2022/10/18 11:27:31;;;;;;;25.27;16.92;;;21.10;73.20;;;;;;4804482;29;20051;-56
2022/10/18 11:30:12;;;;;;;23.13;15.63;;;21.10;73.00;;;;;;4797282;29;20043;-56
2022/10/18 11:32:48;;;;;;;24.35;14.95;;;21.20;72.20;;;;;;4803607;29;20058;-56
2022/10/18 11:35:22;;;;;;;25.58;15.77;;;21.30;71.50;;;;;;4799981;29;20065;-53
2022/10/18 11:38:23;;;;;;;22.35;15.57;;;21.30;72.00;;;;;;4802859;29;20408;-53
2022/10/18 11:41:03;;;;;;;21.52;15.48;;;21.30;71.40;;;;;;4798884;29;20054;-52
2022/10/18 11:43:36;;;;;;;20.40;16.55;;;21.40;71.10;;;;;;4805317;29;20129;-55
2022/10/18 11:46:29;;;;;;;;;;;21.40;71.00;;;;;;4804200;29;20066;-56
2022/10/18 11:49:40;;;;;;;17.98;13.10;;;21.40;71.60;;;;;;4801795;29;19933;-54
2022/10/18 11:52:27;;;;;;;22.55;15.43;;;21.40;70.30;;;;;;4806796;29;20055;-56
2022/10/18 11:55:09;;;;;;;22.30;15.60;;;21.40;70.40;;;;;;4803258;29;20031;-55
2022/10/18 11:57:56;;;;;;;21.90;15.98;;;21.40;70.30;;;;;;4801061;29;20130;-55
2022/10/18 12:00:41;;;;;;;23.10;15.27;;;21.30;70.40;;;;;;4798373;29;20081;-54
2022/10/18 12:03:33;;;;;;;19.45;13.73;;;21.30;70.40;;;;;;4805337;29;20063;-55
2022/10/18 12:06:05;;;;;;;17.73;12.20;;;21.20;69.60;;;;;;4804107;29;20049;-54
2022/10/18 12:08:42;;;;;;;20.13;13.57;;;21.20;69.80;;;;;;4798553;29;20146;-55
2022/10/18 12:11:25;;;;;;;22.25;13.40;;;21.10;69.80;;;;;;4799659;29;20038;-55
2022/10/18 12:13:56;;;;;;;19.13;12.07;;;21.10;69.70;;;;;;4803163;29;20074;-55
2022/10/18 12:16:26;;;;;;;18.52;13.27;;;21.10;69.90;;;;;;4802191;29;20096;-52
2022/10/18 12:19:24;;;;;;;21.08;13.02;;;21.10;70.00;;;;;;4802182;29;20043;-54
2022/10/18 12:21:56;;;;;;;20.58;13.40;;;21.00;69.80;;;;;;4803675;29;20111;-52
2022/10/18 12:24:27;;;;;;;16.80;11.93;;;21.00;69.90;;;;;;4805773;29;20050;-56
2022/10/18 12:26:58;;;;;;;15.23;11.05;;;21.00;69.30;;;;;;4811467;29;20117;-55
2022/10/18 12:29:28;;;;;;;14.10;11.23;;;21.00;69.60;;;;;;4812249;29;20050;-57
2022/10/18 12:32:14;;;;;;;19.85;11.65;;;21.00;70.10;;;;;;4811065;29;20049;-56
2022/10/18 12:34:45;;;;;;;17.90;11.75;;;21.10;69.40;;;;;;4803282;29;20130;-55
2022/10/18 12:37:37;;;;;;;14.70;11.02;;;21.20;69.60;;;;;;4800944;29;20058;-55
2022/10/18 12:40:34;;;;;;;17.23;10.87;;;21.30;69.20;;;;;;4802045;29;20126;-56
2022/10/18 12:43:08;;;;;;;17.63;9.75;;;21.40;69.00;;;;;;4796347;29;20050;-56
2022/10/18 12:45:47;;;;;;;15.40;10.60;;;21.50;68.90;;;;;;4800400;29;20423;-56
2022/10/18 12:48:48;;;;;;;15.15;10.32;;;21.60;68.20;;;;;;4800190;29;20137;-55
2022/10/18 12:51:18;;;;;;;16.75;9.95;;;21.60;68.00;;;;;;4801358;29;20067;-57
2022/10/18 12:53:59;;;;;;;18.60;11.38;;;21.60;67.90;;;;;;4802182;29;20143;-55
2022/10/18 12:56:33;;;;;;;16.60;11.40;;;21.60;67.50;;;;;;4799056;29;20046;-53
2022/10/18 12:59:14;;;;;;;18.17;10.02;;;21.60;67.50;;;;;;4801943;29;20699;-55
2022/10/18 13:01:50;;;;;;;15.80;10.80;;;21.50;66.90;;;;;;4799549;29;20054;-55
2022/10/18 13:04:26;;;;;;;12.75;9.07;;;21.40;66.40;;;;;;4801059;29;20081;-56
2022/10/18 13:07:31;;;;;;;11.75;8.77;;;21.30;66.60;;;;;;4801730;29;20464;-53